sensor_id;sensor_type;location;lat;lon;timestamp;P1;durP1;ratioP1;P2;durP2;ratioP2
39020;SDS011;25188;51.958;5.842;2022-10-16T00:00:40;7.70;;;1.70;;
39020;SDS011;25188;51.958;5.842;2022-10-16T00:03:07;6.55;;;1.77;;
39020;SDS011;25188;51.958;5.842;2022-10-16T00:05:37;4.82;;;2.00;;
39020;SDS011;25188;51.958;5.842;2022-10-16T00:08:04;5.68;;;1.05;;
39020;SDS011;25188;51.958;5.842;2022-10-16T00:10:30;8.05;;;1.95;;
39020;SDS011;25188;51.958;5.842;2022-10-16T00:12:56;6.68;;;1.60;;
39020;SDS011;25188;51.958;5.842;2022-10-16T00:15:21;4.60;;;1.33;;
39020;SDS011;25188;51.958;5.842;2022-10-16T00:17:47;4.18;;;1.52;;
39020;SDS011;25188;51.958;5.842;2022-10-16T00:20:13;5.78;;;1.75;;
39020;SDS011;25188;51.958;5.842;2022-10-16T00:22:39;6.38;;;1.23;;
39020;SDS011;25188;51.958;5.842;2022-10-16T00:25:05;5.55;;;2.03;;
39020;SDS011;25188;51.958;5.842;2022-10-16T00:27:31;6.82;;;2.00;;
39020;SDS011;25188;51.958;5.842;2022-10-16T00:29:56;5.60;;;1.35;;
39020;SDS011;25188;51.958;5.842;2022-10-16T00:32:22;10.65;;;2.03;;
39020;SDS011;25188;51.958;5.842;2022-10-16T00:34:47;5.30;;;1.98;;
39020;SDS011;25188;51.958;5.842;2022-10-16T00:37:13;6.72;;;2.08;;
39020;SDS011;25188;51.958;5.842;2022-10-16T00:39:39;6.78;;;1.73;;
39020;SDS011;25188;51.958;5.842;2022-10-16T00:42:04;6.20;;;1.60;;
39020;SDS011;25188;51.958;5.842;2022-10-16T00:47:27;5.95;;;1.95;;
39020;SDS011;25188;51.958;5.842;2022-10-16T00:50:01;7.07;;;2.17;;
39020;SDS011;25188;51.958;5.842;2022-10-16T00:52:33;5.80;;;1.58;;
39020;SDS011;25188;51.958;5.842;2022-10-16T00:54:59;5.20;;;1.90;;
39020;SDS011;25188;51.958;5.842;2022-10-16T00:57:26;3.92;;;2.08;;
39020;SDS011;25188;51.958;5.842;2022-10-16T00:59:52;5.60;;;2.15;;
39020;SDS011;25188;51.958;5.842;2022-10-16T01:02:18;5.18;;;1.90;;
39020;SDS011;25188;51.958;5.842;2022-10-16T01:04:46;5.35;;;2.33;;
39020;SDS011;25188;51.958;5.842;2022-10-16T01:07:16;6.32;;;1.85;;
39020;SDS011;25188;51.958;5.842;2022-10-16T01:17:57;5.10;;;1.77;;
39020;SDS011;25188;51.958;5.842;2022-10-16T01:20:44;5.47;;;1.90;;
39020;SDS011;25188;51.958;5.842;2022-10-16T01:29:01;4.05;;;2.15;;
39020;SDS011;25188;51.958;5.842;2022-10-16T01:31:34;5.95;;;2.00;;
39020;SDS011;25188;51.958;5.842;2022-10-16T01:34:05;5.80;;;2.20;;
39020;SDS011;25188;51.958;5.842;2022-10-16T01:36:39;4.00;;;1.73;;
39020;SDS011;25188;51.958;5.842;2022-10-16T01:39:15;8.80;;;2.63;;
39020;SDS011;25188;51.958;5.842;2022-10-16T01:41:47;6.82;;;2.33;;
39020;SDS011;25188;51.958;5.842;2022-10-16T01:44:18;4.13;;;1.60;;
39020;SDS011;25188;51.958;5.842;2022-10-16T01:46:48;5.95;;;2.30;;
39020;SDS011;25188;51.958;5.842;2022-10-16T01:49:17;5.95;;;1.90;;
39020;SDS011;25188;51.958;5.842;2022-10-16T01:51:45;5.18;;;2.25;;
39020;SDS011;25188;51.958;5.842;2022-10-16T01:54:14;6.78;;;2.28;;
39020;SDS011;25188;51.958;5.842;2022-10-16T01:56:42;7.53;;;2.35;;
39020;SDS011;25188;51.958;5.842;2022-10-16T01:59:11;5.25;;;2.17;;
39020;SDS011;25188;51.958;5.842;2022-10-16T02:01:40;4.10;;;1.60;;
39020;SDS011;25188;51.958;5.842;2022-10-16T02:04:11;5.35;;;2.05;;
39020;SDS011;25188;51.958;5.842;2022-10-16T02:06:43;4.45;;;2.13;;
39020;SDS011;25188;51.958;5.842;2022-10-16T02:09:09;4.53;;;2.03;;
39020;SDS011;25188;51.958;5.842;2022-10-16T02:11:35;6.25;;;1.75;;
39020;SDS011;25188;51.958;5.842;2022-10-16T02:14:04;7.55;;;2.22;;
39020;SDS011;25188;51.958;5.842;2022-10-16T02:16:41;4.38;;;1.83;;
39020;SDS011;25188;51.958;5.842;2022-10-16T02:19:09;7.80;;;2.00;;
39020;SDS011;25188;51.958;5.842;2022-10-16T02:21:40;6.85;;;2.35;;
39020;SDS011;25188;51.958;5.842;2022-10-16T02:24:15;4.85;;;1.80;;
39020;SDS011;25188;51.958;5.842;2022-10-16T02:26:57;4.97;;;1.88;;
39020;SDS011;25188;51.958;5.842;2022-10-16T02:29:25;3.95;;;1.98;;
39020;SDS011;25188;51.958;5.842;2022-10-16T02:31:53;3.72;;;1.65;;
39020;SDS011;25188;51.958;5.842;2022-10-16T02:34:22;5.15;;;2.03;;
39020;SDS011;25188;51.958;5.842;2022-10-16T02:36:50;5.18;;;1.42;;
39020;SDS011;25188;51.958;5.842;2022-10-16T02:39:17;7.45;;;1.77;;
39020;SDS011;25188;51.958;5.842;2022-10-16T02:41:44;7.47;;;2.10;;
39020;SDS011;25188;51.958;5.842;2022-10-16T02:44:10;3.17;;;1.45;;
39020;SDS011;25188;51.958;5.842;2022-10-16T02:46:36;3.28;;;1.17;;
39020;SDS011;25188;51.958;5.842;2022-10-16T02:49:02;5.97;;;1.92;;
39020;SDS011;25188;51.958;5.842;2022-10-16T02:51:27;5.18;;;1.70;;
39020;SDS011;25188;51.958;5.842;2022-10-16T02:53:53;6.68;;;1.50;;
39020;SDS011;25188;51.958;5.842;2022-10-16T02:56:18;6.00;;;1.58;;
39020;SDS011;25188;51.958;5.842;2022-10-16T02:58:44;2.05;;;1.02;;
39020;SDS011;25188;51.958;5.842;2022-10-16T03:01:10;4.53;;;1.70;;
39020;SDS011;25188;51.958;5.842;2022-10-16T03:03:37;6.07;;;1.50;;
39020;SDS011;25188;51.958;5.842;2022-10-16T03:06:03;3.30;;;1.48;;
39020;SDS011;25188;51.958;5.842;2022-10-16T03:08:29;4.60;;;1.42;;
39020;SDS011;25188;51.958;5.842;2022-10-16T03:10:56;3.63;;;1.65;;
39020;SDS011;25188;51.958;5.842;2022-10-16T03:13:21;4.82;;;1.42;;
39020;SDS011;25188;51.958;5.842;2022-10-16T03:15:47;2.25;;;1.13;;
39020;SDS011;25188;51.958;5.842;2022-10-16T03:18:13;3.83;;;1.30;;
39020;SDS011;25188;51.958;5.842;2022-10-16T03:20:39;2.88;;;1.20;;
39020;SDS011;25188;51.958;5.842;2022-10-16T03:23:04;3.45;;;1.23;;
39020;SDS011;25188;51.958;5.842;2022-10-16T03:25:31;3.42;;;1.25;;
39020;SDS011;25188;51.958;5.842;2022-10-16T03:27:57;3.83;;;1.50;;
39020;SDS011;25188;51.958;5.842;2022-10-16T03:30:22;4.15;;;1.70;;
39020;SDS011;25188;51.958;5.842;2022-10-16T03:32:48;4.55;;;1.20;;
39020;SDS011;25188;51.958;5.842;2022-10-16T03:35:18;6.50;;;1.17;;
39020;SDS011;25188;51.958;5.842;2022-10-16T03:37:47;3.78;;;1.25;;
39020;SDS011;25188;51.958;5.842;2022-10-16T03:40:13;4.70;;;1.17;;
39020;SDS011;25188;51.958;5.842;2022-10-16T03:42:40;3.65;;;1.13;;
39020;SDS011;25188;51.958;5.842;2022-10-16T03:45:07;3.95;;;1.20;;
39020;SDS011;25188;51.958;5.842;2022-10-16T03:47:33;4.88;;;1.05;;
39020;SDS011;25188;51.958;5.842;2022-10-16T03:49:59;4.95;;;1.35;;
39020;SDS011;25188;51.958;5.842;2022-10-16T03:52:25;3.30;;;1.30;;
39020;SDS011;25188;51.958;5.842;2022-10-16T03:54:50;4.82;;;1.40;;
39020;SDS011;25188;51.958;5.842;2022-10-16T03:57:16;5.20;;;1.83;;
39020;SDS011;25188;51.958;5.842;2022-10-16T03:59:42;4.70;;;1.25;;
39020;SDS011;25188;51.958;5.842;2022-10-16T04:02:08;3.47;;;1.20;;
39020;SDS011;25188;51.958;5.842;2022-10-16T04:04:33;2.97;;;1.30;;
39020;SDS011;25188;51.958;5.842;2022-10-16T04:06:59;4.00;;;1.48;;
39020;SDS011;25188;51.958;5.842;2022-10-16T04:09:25;4.90;;;1.98;;
39020;SDS011;25188;51.958;5.842;2022-10-16T04:11:50;5.18;;;1.27;;
39020;SDS011;25188;51.958;5.842;2022-10-16T04:14:16;3.63;;;1.02;;
39020;SDS011;25188;51.958;5.842;2022-10-16T04:16:42;4.93;;;1.40;;
39020;SDS011;25188;51.958;5.842;2022-10-16T04:19:08;2.28;;;0.95;;
39020;SDS011;25188;51.958;5.842;2022-10-16T04:21:34;3.85;;;1.65;;
39020;SDS011;25188;51.958;5.842;2022-10-16T04:24:00;5.40;;;1.50;;
39020;SDS011;25188;51.958;5.842;2022-10-16T04:26:25;7.13;;;1.17;;
39020;SDS011;25188;51.958;5.842;2022-10-16T04:28:51;3.25;;;1.00;;
39020;SDS011;25188;51.958;5.842;2022-10-16T04:31:17;4.35;;;1.30;;
39020;SDS011;25188;51.958;5.842;2022-10-16T04:33:42;4.53;;;1.13;;
39020;SDS011;25188;51.958;5.842;2022-10-16T04:36:08;2.97;;;1.17;;
39020;SDS011;25188;51.958;5.842;2022-10-16T04:38:34;4.00;;;1.40;;
39020;SDS011;25188;51.958;5.842;2022-10-16T04:41:02;3.75;;;1.25;;
39020;SDS011;25188;51.958;5.842;2022-10-16T04:43:28;4.00;;;1.00;;
39020;SDS011;25188;51.958;5.842;2022-10-16T04:45:54;4.38;;;1.17;;
39020;SDS011;25188;51.958;5.842;2022-10-16T04:48:21;2.88;;;1.48;;
39020;SDS011;25188;51.958;5.842;2022-10-16T04:50:47;2.83;;;1.23;;
39020;SDS011;25188;51.958;5.842;2022-10-16T04:53:12;3.47;;;1.30;;
39020;SDS011;25188;51.958;5.842;2022-10-16T04:55:38;3.22;;;1.17;;
39020;SDS011;25188;51.958;5.842;2022-10-16T04:58:04;4.13;;;1.58;;
39020;SDS011;25188;51.958;5.842;2022-10-16T05:00:30;3.35;;;1.23;;
39020;SDS011;25188;51.958;5.842;2022-10-16T05:02:56;3.60;;;1.23;;
39020;SDS011;25188;51.958;5.842;2022-10-16T05:05:23;4.32;;;1.33;;
39020;SDS011;25188;51.958;5.842;2022-10-16T05:07:48;2.55;;;1.00;;
39020;SDS011;25188;51.958;5.842;2022-10-16T05:10:17;4.50;;;1.42;;
39020;SDS011;25188;51.958;5.842;2022-10-16T05:12:43;4.78;;;1.77;;
39020;SDS011;25188;51.958;5.842;2022-10-16T05:15:09;5.97;;;1.50;;
39020;SDS011;25188;51.958;5.842;2022-10-16T05:17:34;2.58;;;1.20;;
39020;SDS011;25188;51.958;5.842;2022-10-16T05:20:00;3.85;;;1.58;;
39020;SDS011;25188;51.958;5.842;2022-10-16T05:22:26;3.30;;;1.20;;
39020;SDS011;25188;51.958;5.842;2022-10-16T05:24:51;5.63;;;1.23;;
39020;SDS011;25188;51.958;5.842;2022-10-16T05:27:17;2.97;;;1.17;;
39020;SDS011;25188;51.958;5.842;2022-10-16T05:29:46;2.83;;;1.20;;
39020;SDS011;25188;51.958;5.842;2022-10-16T05:32:13;4.05;;;0.93;;
39020;SDS011;25188;51.958;5.842;2022-10-16T05:34:40;2.35;;;1.17;;
39020;SDS011;25188;51.958;5.842;2022-10-16T05:37:05;3.25;;;1.33;;
39020;SDS011;25188;51.958;5.842;2022-10-16T05:39:31;4.47;;;1.58;;
39020;SDS011;25188;51.958;5.842;2022-10-16T05:41:56;3.58;;;1.35;;
39020;SDS011;25188;51.958;5.842;2022-10-16T05:44:22;4.13;;;1.60;;
39020;SDS011;25188;51.958;5.842;2022-10-16T05:46:48;2.88;;;1.05;;
39020;SDS011;25188;51.958;5.842;2022-10-16T05:49:13;2.20;;;1.05;;
39020;SDS011;25188;51.958;5.842;2022-10-16T05:51:39;5.95;;;1.30;;
39020;SDS011;25188;51.958;5.842;2022-10-16T05:54:06;3.67;;;1.23;;
39020;SDS011;25188;51.958;5.842;2022-10-16T05:56:31;3.67;;;1.42;;
39020;SDS011;25188;51.958;5.842;2022-10-16T05:58:57;5.18;;;1.20;;
39020;SDS011;25188;51.958;5.842;2022-10-16T06:01:23;3.60;;;1.67;;
39020;SDS011;25188;51.958;5.842;2022-10-16T06:03:49;4.25;;;1.60;;
39020;SDS011;25188;51.958;5.842;2022-10-16T06:06:17;3.42;;;1.45;;
39020;SDS011;25188;51.958;5.842;2022-10-16T06:08:45;3.40;;;1.73;;
39020;SDS011;25188;51.958;5.842;2022-10-16T06:11:14;5.45;;;1.50;;
39020;SDS011;25188;51.958;5.842;2022-10-16T06:13:42;4.63;;;1.50;;
39020;SDS011;25188;51.958;5.842;2022-10-16T06:16:10;4.22;;;1.83;;
39020;SDS011;25188;51.958;5.842;2022-10-16T06:18:37;3.78;;;1.35;;
39020;SDS011;25188;51.958;5.842;2022-10-16T06:21:11;4.30;;;1.75;;
39020;SDS011;25188;51.958;5.842;2022-10-16T06:23:39;5.00;;;1.80;;
39020;SDS011;25188;51.958;5.842;2022-10-16T06:26:05;4.38;;;1.55;;
39020;SDS011;25188;51.958;5.842;2022-10-16T06:28:32;4.15;;;1.52;;
39020;SDS011;25188;51.958;5.842;2022-10-16T06:31:01;4.82;;;1.60;;
39020;SDS011;25188;51.958;5.842;2022-10-16T06:33:27;4.53;;;1.50;;
39020;SDS011;25188;51.958;5.842;2022-10-16T06:35:53;4.10;;;1.42;;
39020;SDS011;25188;51.958;5.842;2022-10-16T06:38:24;3.17;;;1.50;;
39020;SDS011;25188;51.958;5.842;2022-10-16T06:40:50;5.05;;;1.75;;
39020;SDS011;25188;51.958;5.842;2022-10-16T06:43:15;3.55;;;1.60;;
39020;SDS011;25188;51.958;5.842;2022-10-16T06:45:41;5.75;;;1.98;;
39020;SDS011;25188;51.958;5.842;2022-10-16T06:48:07;4.75;;;1.50;;
39020;SDS011;25188;51.958;5.842;2022-10-16T06:50:32;4.40;;;1.60;;
39020;SDS011;25188;51.958;5.842;2022-10-16T06:52:58;7.40;;;1.70;;
39020;SDS011;25188;51.958;5.842;2022-10-16T06:55:23;5.93;;;1.70;;
39020;SDS011;25188;51.958;5.842;2022-10-16T06:57:49;3.05;;;1.35;;
39020;SDS011;25188;51.958;5.842;2022-10-16T07:00:15;4.68;;;1.30;;
39020;SDS011;25188;51.958;5.842;2022-10-16T07:02:40;2.80;;;1.67;;
39020;SDS011;25188;51.958;5.842;2022-10-16T07:05:06;5.18;;;1.05;;
39020;SDS011;25188;51.958;5.842;2022-10-16T07:07:32;7.30;;;1.75;;
39020;SDS011;25188;51.958;5.842;2022-10-16T07:09:57;4.03;;;1.15;;
39020;SDS011;25188;51.958;5.842;2022-10-16T07:12:23;4.20;;;1.27;;
39020;SDS011;25188;51.958;5.842;2022-10-16T07:14:49;6.80;;;1.25;;
39020;SDS011;25188;51.958;5.842;2022-10-16T07:17:17;2.17;;;0.90;;
39020;SDS011;25188;51.958;5.842;2022-10-16T07:19:42;2.92;;;1.23;;
39020;SDS011;25188;51.958;5.842;2022-10-16T07:22:08;6.13;;;1.63;;
39020;SDS011;25188;51.958;5.842;2022-10-16T07:24:34;2.90;;;1.17;;
39020;SDS011;25188;51.958;5.842;2022-10-16T07:26:59;3.58;;;1.20;;
39020;SDS011;25188;51.958;5.842;2022-10-16T07:29:25;7.30;;;1.65;;
39020;SDS011;25188;51.958;5.842;2022-10-16T07:31:51;4.72;;;1.23;;
39020;SDS011;25188;51.958;5.842;2022-10-16T07:34:17;4.68;;;1.55;;
39020;SDS011;25188;51.958;5.842;2022-10-16T07:36:46;6.18;;;1.38;;
39020;SDS011;25188;51.958;5.842;2022-10-16T07:39:13;3.67;;;1.20;;
39020;SDS011;25188;51.958;5.842;2022-10-16T07:41:38;7.32;;;2.38;;
39020;SDS011;25188;51.958;5.842;2022-10-16T07:44:04;6.72;;;1.20;;
39020;SDS011;25188;51.958;5.842;2022-10-16T07:46:31;3.85;;;1.50;;
39020;SDS011;25188;51.958;5.842;2022-10-16T07:48:58;4.03;;;1.38;;
39020;SDS011;25188;51.958;5.842;2022-10-16T07:51:24;3.58;;;1.20;;
39020;SDS011;25188;51.958;5.842;2022-10-16T07:53:51;5.90;;;1.42;;
39020;SDS011;25188;51.958;5.842;2022-10-16T07:56:17;3.47;;;1.00;;
39020;SDS011;25188;51.958;5.842;2022-10-16T07:58:44;3.80;;;1.25;;
39020;SDS011;25188;51.958;5.842;2022-10-16T08:01:11;5.00;;;1.40;;
39020;SDS011;25188;51.958;5.842;2022-10-16T08:03:38;5.40;;;1.20;;
39020;SDS011;25188;51.958;5.842;2022-10-16T08:06:10;4.95;;;1.17;;
39020;SDS011;25188;51.958;5.842;2022-10-16T08:08:36;5.88;;;1.35;;
39020;SDS011;25188;51.958;5.842;2022-10-16T08:11:01;5.47;;;1.38;;
39020;SDS011;25188;51.958;5.842;2022-10-16T08:13:29;3.53;;;1.10;;
39020;SDS011;25188;51.958;5.842;2022-10-16T08:15:55;6.93;;;1.50;;
39020;SDS011;25188;51.958;5.842;2022-10-16T08:18:21;5.38;;;1.45;;
39020;SDS011;25188;51.958;5.842;2022-10-16T08:20:47;4.00;;;1.27;;
39020;SDS011;25188;51.958;5.842;2022-10-16T08:23:13;5.53;;;1.27;;
39020;SDS011;25188;51.958;5.842;2022-10-16T08:25:39;6.05;;;1.25;;
39020;SDS011;25188;51.958;5.842;2022-10-16T08:28:06;5.50;;;1.20;;
39020;SDS011;25188;51.958;5.842;2022-10-16T08:30:33;4.85;;;1.42;;
39020;SDS011;25188;51.958;5.842;2022-10-16T08:32:59;7.55;;;1.27;;
39020;SDS011;25188;51.958;5.842;2022-10-16T08:35:25;4.75;;;1.00;;
39020;SDS011;25188;51.958;5.842;2022-10-16T08:37:50;4.10;;;1.10;;
39020;SDS011;25188;51.958;5.842;2022-10-16T08:40:17;4.22;;;0.90;;
39020;SDS011;25188;51.958;5.842;2022-10-16T08:45:57;4.53;;;1.42;;
39020;SDS011;25188;51.958;5.842;2022-10-16T08:51:11;6.35;;;0.93;;
39020;SDS011;25188;51.958;5.842;2022-10-16T08:53:45;6.32;;;0.88;;
39020;SDS011;25188;51.958;5.842;2022-10-16T08:56:14;3.85;;;1.02;;
39020;SDS011;25188;51.958;5.842;2022-10-16T08:58:42;4.93;;;0.90;;
39020;SDS011;25188;51.958;5.842;2022-10-16T09:01:12;5.10;;;1.13;;
39020;SDS011;25188;51.958;5.842;2022-10-16T09:17:40;4.63;;;0.80;;
39020;SDS011;25188;51.958;5.842;2022-10-16T09:23:43;5.88;;;1.02;;
39020;SDS011;25188;51.958;5.842;2022-10-16T09:26:09;5.38;;;0.90;;
39020;SDS011;25188;51.958;5.842;2022-10-16T09:28:40;8.38;;;1.27;;
39020;SDS011;25188;51.958;5.842;2022-10-16T09:31:09;7.90;;;1.08;;
39020;SDS011;25188;51.958;5.842;2022-10-16T09:33:48;5.03;;;1.20;;
39020;SDS011;25188;51.958;5.842;2022-10-16T09:36:18;4.80;;;1.00;;
39020;SDS011;25188;51.958;5.842;2022-10-16T09:38:45;9.57;;;1.00;;
39020;SDS011;25188;51.958;5.842;2022-10-16T09:41:15;7.72;;;1.05;;
39020;SDS011;25188;51.958;5.842;2022-10-16T09:46:30;4.95;;;1.02;;
39020;SDS011;25188;51.958;5.842;2022-10-16T09:48:58;3.92;;;1.00;;
39020;SDS011;25188;51.958;5.842;2022-10-16T09:51:33;4.43;;;1.00;;
39020;SDS011;25188;51.958;5.842;2022-10-16T09:56:35;6.72;;;1.08;;
39020;SDS011;25188;51.958;5.842;2022-10-16T09:59:14;4.00;;;0.85;;
39020;SDS011;25188;51.958;5.842;2022-10-16T10:04:13;3.80;;;0.70;;
39020;SDS011;25188;51.958;5.842;2022-10-16T10:06:46;5.53;;;0.60;;
39020;SDS011;25188;51.958;5.842;2022-10-16T10:09:34;8.00;;;0.90;;
39020;SDS011;25188;51.958;5.842;2022-10-16T10:12:16;5.47;;;0.98;;
39020;SDS011;25188;51.958;5.842;2022-10-16T10:14:44;5.10;;;0.88;;
39020;SDS011;25188;51.958;5.842;2022-10-16T10:17:21;6.03;;;1.10;;
39020;SDS011;25188;51.958;5.842;2022-10-16T10:22:24;3.42;;;0.60;;
39020;SDS011;25188;51.958;5.842;2022-10-16T10:36:34;6.00;;;1.50;;
39020;SDS011;25188;51.958;5.842;2022-10-16T10:39:12;8.27;;;1.27;;
39020;SDS011;25188;51.958;5.842;2022-10-16T10:50:35;11.50;;;1.13;;
39020;SDS011;25188;51.958;5.842;2022-10-16T10:53:10;6.90;;;1.25;;
39020;SDS011;25188;51.958;5.842;2022-10-16T10:55:45;8.18;;;1.23;;
39020;SDS011;25188;51.958;5.842;2022-10-16T10:58:55;4.40;;;1.13;;
39020;SDS011;25188;51.958;5.842;2022-10-16T11:07:21;5.45;;;1.00;;
39020;SDS011;25188;51.958;5.842;2022-10-16T11:09:58;9.25;;;1.20;;
39020;SDS011;25188;51.958;5.842;2022-10-16T11:12:34;6.72;;;1.05;;
39020;SDS011;25188;51.958;5.842;2022-10-16T11:15:10;5.20;;;1.10;;
39020;SDS011;25188;51.958;5.842;2022-10-16T11:18:06;10.55;;;1.70;;
39020;SDS011;25188;51.958;5.842;2022-10-16T11:25:53;8.13;;;1.30;;
39020;SDS011;25188;51.958;5.842;2022-10-16T11:28:29;7.43;;;1.33;;
39020;SDS011;25188;51.958;5.842;2022-10-16T11:39:18;5.82;;;1.00;;
39020;SDS011;25188;51.958;5.842;2022-10-16T11:41:52;7.65;;;0.80;;
39020;SDS011;25188;51.958;5.842;2022-10-16T11:47:35;5.57;;;1.10;;
39020;SDS011;25188;51.958;5.842;2022-10-16T11:55:52;8.90;;;1.15;;
39020;SDS011;25188;51.958;5.842;2022-10-16T12:00:57;7.88;;;1.35;;
39020;SDS011;25188;51.958;5.842;2022-10-16T12:08:36;5.65;;;0.93;;
39020;SDS011;25188;51.958;5.842;2022-10-16T12:11:06;8.13;;;1.10;;
39020;SDS011;25188;51.958;5.842;2022-10-16T12:13:51;7.68;;;1.60;;
39020;SDS011;25188;51.958;5.842;2022-10-16T12:18:43;4.93;;;0.93;;
39020;SDS011;25188;51.958;5.842;2022-10-16T12:21:10;6.22;;;1.05;;
39020;SDS011;25188;51.958;5.842;2022-10-16T12:23:53;6.88;;;1.20;;
39020;SDS011;25188;51.958;5.842;2022-10-16T12:26:33;5.93;;;1.40;;
39020;SDS011;25188;51.958;5.842;2022-10-16T12:29:38;4.93;;;0.90;;
39020;SDS011;25188;51.958;5.842;2022-10-16T12:34:59;6.20;;;1.10;;
39020;SDS011;25188;51.958;5.842;2022-10-16T12:37:32;5.75;;;1.08;;
39020;SDS011;25188;51.958;5.842;2022-10-16T12:40:22;8.52;;;1.05;;
39020;SDS011;25188;51.958;5.842;2022-10-16T12:42:57;5.85;;;1.00;;
39020;SDS011;25188;51.958;5.842;2022-10-16T12:45:30;5.28;;;1.10;;
39020;SDS011;25188;51.958;5.842;2022-10-16T12:47:57;6.47;;;1.30;;
39020;SDS011;25188;51.958;5.842;2022-10-16T12:52:56;8.60;;;1.02;;
39020;SDS011;25188;51.958;5.842;2022-10-16T12:55:23;7.57;;;1.13;;
39020;SDS011;25188;51.958;5.842;2022-10-16T13:00:49;7.82;;;1.02;;
39020;SDS011;25188;51.958;5.842;2022-10-16T13:06:16;7.05;;;0.95;;
39020;SDS011;25188;51.958;5.842;2022-10-16T13:11:43;6.75;;;1.35;;
39020;SDS011;25188;51.958;5.842;2022-10-16T13:17:25;6.05;;;0.90;;
39020;SDS011;25188;51.958;5.842;2022-10-16T13:20:30;5.80;;;0.93;;
39020;SDS011;25188;51.958;5.842;2022-10-16T13:28:21;7.72;;;1.38;;
39020;SDS011;25188;51.958;5.842;2022-10-16T13:30:53;5.13;;;1.00;;
39020;SDS011;25188;51.958;5.842;2022-10-16T13:33:24;5.60;;;1.10;;
39020;SDS011;25188;51.958;5.842;2022-10-16T13:36:17;6.15;;;1.00;;
39020;SDS011;25188;51.958;5.842;2022-10-16T13:39:06;7.00;;;0.95;;
39020;SDS011;25188;51.958;5.842;2022-10-16T13:41:46;7.15;;;1.10;;
39020;SDS011;25188;51.958;5.842;2022-10-16T13:44:27;7.30;;;1.05;;
39020;SDS011;25188;51.958;5.842;2022-10-16T13:47:01;5.70;;;1.10;;
39020;SDS011;25188;51.958;5.842;2022-10-16T13:49:27;8.48;;;1.35;;
39020;SDS011;25188;51.958;5.842;2022-10-16T13:51:57;7.30;;;1.15;;
39020;SDS011;25188;51.958;5.842;2022-10-16T13:54:24;5.50;;;0.98;;
39020;SDS011;25188;51.958;5.842;2022-10-16T13:56:51;4.97;;;0.95;;
39020;SDS011;25188;51.958;5.842;2022-10-16T13:59:27;8.93;;;1.02;;
39020;SDS011;25188;51.958;5.842;2022-10-16T14:01:59;4.88;;;1.10;;
39020;SDS011;25188;51.958;5.842;2022-10-16T14:04:31;6.88;;;1.08;;
39020;SDS011;25188;51.958;5.842;2022-10-16T14:06:58;5.57;;;1.00;;
39020;SDS011;25188;51.958;5.842;2022-10-16T14:09:30;6.35;;;1.15;;
39020;SDS011;25188;51.958;5.842;2022-10-16T14:12:03;4.75;;;0.80;;
39020;SDS011;25188;51.958;5.842;2022-10-16T14:14:34;5.88;;;0.80;;
39020;SDS011;25188;51.958;5.842;2022-10-16T14:17:15;5.40;;;0.82;;
39020;SDS011;25188;51.958;5.842;2022-10-16T14:19:45;7.55;;;1.30;;
39020;SDS011;25188;51.958;5.842;2022-10-16T14:22:34;9.55;;;1.48;;
39020;SDS011;25188;51.958;5.842;2022-10-16T14:28:05;4.03;;;0.80;;
39020;SDS011;25188;51.958;5.842;2022-10-16T14:33:39;6.88;;;1.13;;
39020;SDS011;25188;51.958;5.842;2022-10-16T14:36:14;5.03;;;0.77;;
39020;SDS011;25188;51.958;5.842;2022-10-16T14:41:29;5.43;;;0.97;;
39020;SDS011;25188;51.958;5.842;2022-10-16T14:43:57;5.30;;;0.88;;
39020;SDS011;25188;51.958;5.842;2022-10-16T14:46:29;9.23;;;1.20;;
39020;SDS011;25188;51.958;5.842;2022-10-16T14:51:39;4.05;;;0.80;;
39020;SDS011;25188;51.958;5.842;2022-10-16T14:54:07;6.40;;;0.95;;
39020;SDS011;25188;51.958;5.842;2022-10-16T14:56:35;6.07;;;0.80;;
39020;SDS011;25188;51.958;5.842;2022-10-16T14:59:13;6.53;;;0.90;;
39020;SDS011;25188;51.958;5.842;2022-10-16T15:04:10;8.15;;;1.25;;
39020;SDS011;25188;51.958;5.842;2022-10-16T15:06:37;5.97;;;1.02;;
39020;SDS011;25188;51.958;5.842;2022-10-16T15:09:03;6.80;;;1.30;;
39020;SDS011;25188;51.958;5.842;2022-10-16T15:11:31;3.60;;;0.63;;
39020;SDS011;25188;51.958;5.842;2022-10-16T15:13:58;5.13;;;0.88;;
39020;SDS011;25188;51.958;5.842;2022-10-16T15:16:23;4.22;;;0.60;;
39020;SDS011;25188;51.958;5.842;2022-10-16T15:18:49;3.55;;;0.60;;
39020;SDS011;25188;51.958;5.842;2022-10-16T15:21:34;7.93;;;0.98;;
39020;SDS011;25188;51.958;5.842;2022-10-16T15:26:26;4.93;;;0.95;;
39020;SDS011;25188;51.958;5.842;2022-10-16T15:28:52;4.10;;;0.63;;
39020;SDS011;25188;51.958;5.842;2022-10-16T15:31:18;6.43;;;0.82;;
39020;SDS011;25188;51.958;5.842;2022-10-16T15:33:46;6.97;;;0.60;;
39020;SDS011;25188;51.958;5.842;2022-10-16T15:36:24;4.07;;;0.60;;
39020;SDS011;25188;51.958;5.842;2022-10-16T15:38:50;5.07;;;0.80;;
39020;SDS011;25188;51.958;5.842;2022-10-16T15:41:16;6.90;;;0.70;;
39020;SDS011;25188;51.958;5.842;2022-10-16T15:43:42;4.35;;;0.70;;
39020;SDS011;25188;51.958;5.842;2022-10-16T15:46:09;4.25;;;0.75;;
39020;SDS011;25188;51.958;5.842;2022-10-16T15:48:36;8.27;;;0.88;;
39020;SDS011;25188;51.958;5.842;2022-10-16T15:51:04;4.65;;;0.60;;
39020;SDS011;25188;51.958;5.842;2022-10-16T15:53:32;8.40;;;1.67;;
39020;SDS011;25188;51.958;5.842;2022-10-16T15:56:01;6.80;;;1.10;;
39020;SDS011;25188;51.958;5.842;2022-10-16T15:58:27;4.97;;;0.50;;
39020;SDS011;25188;51.958;5.842;2022-10-16T16:00:54;7.47;;;0.70;;
39020;SDS011;25188;51.958;5.842;2022-10-16T16:03:21;3.83;;;0.75;;
39020;SDS011;25188;51.958;5.842;2022-10-16T16:05:46;6.20;;;0.93;;
39020;SDS011;25188;51.958;5.842;2022-10-16T16:08:12;4.32;;;0.70;;
39020;SDS011;25188;51.958;5.842;2022-10-16T16:10:38;5.50;;;0.90;;
39020;SDS011;25188;51.958;5.842;2022-10-16T16:13:03;6.80;;;1.20;;
39020;SDS011;25188;51.958;5.842;2022-10-16T16:15:29;6.25;;;0.82;;
39020;SDS011;25188;51.958;5.842;2022-10-16T16:17:55;4.07;;;0.73;;
39020;SDS011;25188;51.958;5.842;2022-10-16T16:20:20;8.93;;;1.63;;
39020;SDS011;25188;51.958;5.842;2022-10-16T16:22:46;5.78;;;0.90;;
39020;SDS011;25188;51.958;5.842;2022-10-16T16:25:12;4.85;;;0.57;;
39020;SDS011;25188;51.958;5.842;2022-10-16T16:27:37;3.50;;;0.75;;
39020;SDS011;25188;51.958;5.842;2022-10-16T16:30:04;9.85;;;1.27;;
39020;SDS011;25188;51.958;5.842;2022-10-16T16:32:32;8.75;;;1.02;;
39020;SDS011;25188;51.958;5.842;2022-10-16T16:34:59;3.35;;;0.60;;
39020;SDS011;25188;51.958;5.842;2022-10-16T16:37:24;5.28;;;1.00;;
39020;SDS011;25188;51.958;5.842;2022-10-16T16:39:50;10.57;;;1.00;;
39020;SDS011;25188;51.958;5.842;2022-10-16T16:42:16;4.20;;;1.10;;
39020;SDS011;25188;51.958;5.842;2022-10-16T16:44:41;6.72;;;0.70;;
39020;SDS011;25188;51.958;5.842;2022-10-16T16:47:07;4.90;;;1.02;;
39020;SDS011;25188;51.958;5.842;2022-10-16T16:49:34;7.07;;;1.40;;
39020;SDS011;25188;51.958;5.842;2022-10-16T16:52:00;7.25;;;1.70;;
39020;SDS011;25188;51.958;5.842;2022-10-16T16:54:25;7.95;;;1.30;;
39020;SDS011;25188;51.958;5.842;2022-10-16T16:56:51;5.00;;;1.17;;
39020;SDS011;25188;51.958;5.842;2022-10-16T16:59:17;7.80;;;1.20;;
39020;SDS011;25188;51.958;5.842;2022-10-16T17:01:45;6.10;;;1.27;;
39020;SDS011;25188;51.958;5.842;2022-10-16T17:04:10;8.13;;;1.30;;
39020;SDS011;25188;51.958;5.842;2022-10-16T17:06:37;6.35;;;1.40;;
39020;SDS011;25188;51.958;5.842;2022-10-16T17:09:03;10.02;;;1.73;;
39020;SDS011;25188;51.958;5.842;2022-10-16T17:11:30;7.07;;;1.67;;
39020;SDS011;25188;51.958;5.842;2022-10-16T17:13:57;5.25;;;1.23;;
39020;SDS011;25188;51.958;5.842;2022-10-16T17:16:25;9.82;;;1.50;;
39020;SDS011;25188;51.958;5.842;2022-10-16T17:18:52;7.13;;;1.67;;
39020;SDS011;25188;51.958;5.842;2022-10-16T17:21:18;6.60;;;1.30;;
39020;SDS011;25188;51.958;5.842;2022-10-16T17:23:44;6.80;;;1.58;;
39020;SDS011;25188;51.958;5.842;2022-10-16T17:26:14;7.53;;;1.73;;